Time;durP1;ratioP1;P1;durP2;ratioP2;P2;SDS_P1;SDS_P2;PMS_P1;PMS_P2;Temp;Humidity;BMP_temperature;BMP_pressure;BME280_temperature;BME280_humidity;BME280_pressure;Samples;Min_cycle;Max_cycle;Signal;HPM_P1;HPM_P2
2023/07/06 00:00:15;;;;;;;4.68;4.10;;;17.10;99.90;;;;;;5093720;28;20086;-80
2023/07/06 00:02:41;;;;;;;5.63;4.07;;;17.10;99.90;;;;;;5076244;28;20032;-80
2023/07/06 00:05:07;;;;;;;5.80;4.28;;;17.10;99.90;;;;;;5092139;28;20040;-80
2023/07/06 00:07:34;;;;;;;7.38;4.47;;;17.10;99.90;;;;;;5093828;28;20027;-79
2023/07/06 00:10:00;;;;;;;5.70;3.90;;;17.10;99.90;;;;;;5093539;28;20027;-80
2023/07/06 00:12:26;;;;;;;6.82;5.18;;;17.10;99.90;;;;;;5092650;28;20371;-79
2023/07/06 00:14:51;;;;;;;6.93;5.30;;;17.10;99.90;;;;;;5093199;28;20471;-79
2023/07/06 00:17:18;;;;;;;4.40;4.00;;;17.10;99.90;;;;;;5093144;28;20047;-79
2023/07/06 00:19:46;;;;;;;5.75;3.97;;;17.10;99.90;;;;;;5093416;28;20043;-80
2023/07/06 00:22:13;;;;;;;5.72;4.72;;;17.10;99.90;;;;;;5093421;28;20464;-79
2023/07/06 00:24:40;;;;;;;6.78;4.80;;;17.10;99.90;;;;;;5093560;28;20032;-80
2023/07/06 00:27:06;;;;;;;6.30;4.57;;;17.10;99.90;;;;;;5092714;28;20099;-80
2023/07/06 00:29:35;;;;;;;10.75;4.68;;;17.10;99.90;;;;;;5091832;28;20035;-80
2023/07/06 00:32:15;;;;;;;5.90;4.50;;;17.00;99.90;;;;;;5093343;28;20081;-79
2023/07/06 00:34:43;;;;;;;5.93;4.93;;;17.10;99.90;;;;;;5093332;28;20027;-79
2023/07/06 00:37:11;;;;;;;6.93;5.03;;;17.10;99.90;;;;;;5093332;28;20028;-80
2023/07/06 00:39:37;;;;;;;5.75;4.68;;;17.00;99.90;;;;;;5093354;28;20076;-80
2023/07/06 00:42:05;;;;;;;5.85;4.88;;;17.00;99.90;;;;;;5093440;28;20052;-80
2023/07/06 00:44:55;;;;;;;9.38;5.38;;;17.00;99.90;;;;;;5095429;28;20028;-80
2023/07/06 00:47:49;;;;;;;9.80;5.20;;;17.00;99.90;;;;;;5096578;28;20050;-80
2023/07/06 00:50:21;;;;;;;7.40;5.25;;;17.00;99.90;;;;;;5097870;28;20020;-80
2023/07/06 00:52:51;;;;;;;5.72;4.93;;;17.00;99.90;;;;;;5096882;28;20031;-80
2023/07/06 00:55:25;;;;;;;9.18;5.43;;;17.00;99.90;;;;;;5097942;28;20028;-79
2023/07/06 00:57:55;;;;;;;6.63;4.50;;;17.00;99.90;;;;;;5096881;28;20024;-80
2023/07/06 01:00:21;;;;;;;6.88;5.10;;;17.00;99.90;;;;;;5096292;28;20111;-80
2023/07/06 01:02:53;;;;;;;9.80;6.10;;;17.00;99.90;;;;;;5078590;28;20086;-79
2023/07/06 01:05:23;;;;;;;7.10;5.40;;;17.00;99.90;;;;;;5095780;28;20036;-80
2023/07/06 01:07:51;;;;;;;8.65;4.82;;;17.00;99.90;;;;;;5094925;28;20126;-80
2023/07/06 01:10:18;;;;;;;6.75;5.30;;;17.00;99.90;;;;;;5095893;28;20024;-80
2023/07/06 01:12:43;;;;;;;6.28;5.20;;;17.00;99.90;;;;;;5096303;28;20081;-80
2023/07/06 01:15:09;;;;;;;8.85;5.22;;;17.10;99.90;;;;;;5096303;28;20028;-80
2023/07/06 01:17:53;;;;;;;7.55;5.22;;;17.10;99.90;;;;;;5095983;28;20032;-79
2023/07/06 01:20:40;;;;;;;6.25;5.13;;;17.10;99.90;;;;;;5096201;28;20064;-80
2023/07/06 01:23:30;;;;;;;8.63;4.88;;;17.10;99.90;;;;;;5096230;28;20031;-79
2023/07/06 01:26:12;;;;;;;6.80;4.85;;;17.10;99.90;;;;;;5096056;28;20525;-80
2023/07/06 01:28:47;;;;;;;9.52;5.80;;;17.10;99.90;;;;;;5096428;28;20020;-80
2023/07/06 01:31:21;;;;;;;7.68;5.55;;;17.00;99.90;;;;;;5095989;28;20043;-80
2023/07/06 01:33:53;;;;;;;8.30;6.03;;;17.00;99.90;;;;;;5094643;28;20067;-80
2023/07/06 01:36:39;;;;;;;9.30;6.17;;;17.00;99.90;;;;;;5095625;28;20051;-80
2023/07/06 01:39:22;;;;;;;9.65;5.80;;;16.90;99.90;;;;;;5095784;28;20277;-81
2023/07/06 01:42:07;;;;;;;8.98;6.13;;;16.80;99.90;;;;;;5095900;28;20020;-80
2023/07/06 01:44:34;;;;;;;6.57;4.95;;;16.80;99.90;;;;;;5080203;28;20423;-80
2023/07/06 01:47:00;;;;;;;11.35;5.90;;;16.80;99.90;;;;;;5095651;28;20094;-81
2023/07/06 01:49:25;;;;;;;7.97;5.57;;;16.80;99.90;;;;;;5095688;28;20053;-80
2023/07/06 01:52:09;;;;;;;8.63;5.45;;;16.80;99.90;;;;;;5094666;28;20478;-80
2023/07/06 01:55:20;;;;;;;8.30;5.97;;;16.80;99.90;;;;;;5093779;28;20035;-80
2023/07/06 01:57:52;;;;;;;12.98;6.43;;;16.70;99.90;;;;;;5095822;28;20071;-81
2023/07/06 02:00:19;;;;;;;9.02;5.88;;;16.70;99.90;;;;;;5095405;28;20047;-80
2023/07/06 02:02:51;;;;;;;12.43;5.63;;;16.70;99.90;;;;;;5095332;28;20388;-80
2023/07/06 02:05:19;;;;;;;9.57;5.80;;;16.70;99.90;;;;;;5094597;28;20039;-80
2023/07/06 02:07:45;;;;;;;10.95;6.15;;;16.70;99.90;;;;;;5095273;28;20024;-80
2023/07/06 02:10:16;;;;;;;9.45;5.85;;;16.70;99.90;;;;;;5095222;28;20042;-80
2023/07/06 02:12:47;;;;;;;12.15;6.30;;;16.60;99.90;;;;;;5093898;28;20032;-80
2023/07/06 02:15:18;;;;;;;9.48;6.30;;;16.60;99.90;;;;;;5095233;28;20027;-80
2023/07/06 02:17:49;;;;;;;10.13;6.15;;;16.60;99.90;;;;;;5095554;28;20032;-80
2023/07/06 02:20:19;;;;;;;8.27;5.65;;;16.60;99.90;;;;;;5095365;28;20051;-82
2023/07/06 02:22:45;;;;;;;10.27;5.50;;;16.60;99.90;;;;;;5095023;28;20030;-80
2023/07/06 02:25:11;;;;;;;7.75;6.03;;;16.60;99.90;;;;;;5095086;28;20459;-81
2023/07/06 02:27:37;;;;;;;12.80;6.45;;;16.60;99.90;;;;;;5093750;28;20111;-80
2023/07/06 02:30:04;;;;;;;13.00;6.47;;;16.60;99.90;;;;;;5094901;28;20109;-80
2023/07/06 02:32:31;;;;;;;9.52;6.25;;;16.60;99.90;;;;;;5093562;28;20028;-80
2023/07/06 02:34:57;;;;;;;6.90;6.07;;;16.60;99.90;;;;;;5094804;28;20056;-80
2023/07/06 02:37:23;;;;;;;10.32;5.93;;;16.60;99.90;;;;;;5094485;28;20062;-80
2023/07/06 02:39:52;;;;;;;8.70;5.63;;;16.50;99.90;;;;;;5094692;28;20028;-80
2023/07/06 02:42:19;;;;;;;12.85;6.85;;;16.50;99.90;;;;;;5094694;28;20089;-80
2023/07/06 02:44:44;;;;;;;13.07;6.32;;;16.50;99.90;;;;;;5093424;28;20040;-81
2023/07/06 02:47:11;;;;;;;10.65;5.95;;;16.50;99.90;;;;;;5094349;28;20059;-81
2023/07/06 02:49:36;;;;;;;7.60;5.82;;;16.50;99.90;;;;;;5094546;28;20036;-81
2023/07/06 02:52:02;;;;;;;11.40;6.18;;;16.50;99.90;;;;;;5093108;28;20471;-81
2023/07/06 02:54:28;;;;;;;8.93;5.55;;;16.50;99.90;;;;;;5093249;28;20107;-81
2023/07/06 02:56:56;;;;;;;8.95;5.13;;;16.50;99.90;;;;;;5092888;28;20118;-81
2023/07/06 02:59:21;;;;;;;9.75;5.78;;;16.50;99.90;;;;;;5094441;28;20049;-81
2023/07/06 03:01:47;;;;;;;10.82;5.72;;;16.50;99.90;;;;;;5092972;28;20400;-80
2023/07/06 03:04:17;;;;;;;10.57;5.97;;;16.40;99.90;;;;;;5094169;28;20028;-82
2023/07/06 03:06:45;;;;;;;9.07;5.57;;;16.40;99.90;;;;;;5094168;28;20039;-81
2023/07/06 03:09:11;;;;;;;12.18;5.70;;;16.30;99.90;;;;;;5094244;28;20428;-82
2023/07/06 03:11:37;;;;;;;9.20;6.18;;;16.40;99.90;;;;;;5092947;28;20082;-82
2023/07/06 03:14:04;;;;;;;10.80;5.13;;;16.30;99.90;;;;;;5093003;28;20054;-82
2023/07/06 03:16:38;;;;;;;8.02;4.38;;;16.30;99.90;;;;;;5093431;28;20061;-82
2023/07/06 03:19:04;;;;;;;14.95;5.30;;;16.30;99.90;;;;;;5093615;28;20024;-82
2023/07/06 03:21:30;;;;;;;8.15;5.07;;;16.30;99.90;;;;;;5092862;28;20118;-82
2023/07/06 03:23:55;;;;;;;7.75;4.85;;;16.30;99.90;;;;;;5076135;28;20077;-82
2023/07/06 03:26:22;;;;;;;6.32;4.00;;;16.30;99.90;;;;;;5094432;28;20086;-83
2023/07/06 03:28:49;;;;;;;10.15;5.78;;;16.30;99.90;;;;;;5095356;28;20030;-81
2023/07/06 03:31:15;;;;;;;6.95;3.30;;;16.30;99.90;;;;;;5093286;28;20028;-82
2023/07/06 03:33:41;;;;;;;6.18;3.85;;;16.30;99.90;;;;;;5094666;28;20063;-82
2023/07/06 03:36:07;;;;;;;11.57;5.03;;;16.30;99.90;;;;;;5076215;28;20433;-83
2023/07/06 03:38:35;;;;;;;8.32;3.60;;;16.30;99.90;;;;;;5093399;28;20509;-82
2023/07/06 03:41:04;;;;;;;10.13;4.57;;;16.30;99.90;;;;;;5076693;28;20032;-82
2023/07/06 03:43:31;;;;;;;10.15;4.63;;;16.30;99.90;;;;;;5093704;28;20021;-83
2023/07/06 03:45:56;;;;;;;5.18;3.20;;;16.30;99.90;;;;;;5094041;28;20119;-82
2023/07/06 03:48:22;;;;;;;9.45;4.10;;;16.30;99.90;;;;;;5091106;28;20170;-82
2023/07/06 03:50:52;;;;;;;8.27;4.72;;;16.30;99.90;;;;;;5094099;28;20380;-81
2023/07/06 03:53:18;;;;;;;9.52;3.85;;;16.30;99.90;;;;;;5092666;28;20031;-81
2023/07/06 03:55:45;;;;;;;10.95;4.82;;;16.30;99.90;;;;;;5094083;28;20091;-82
2023/07/06 03:58:10;;;;;;;7.35;3.60;;;16.30;99.90;;;;;;5094071;28;20028;-82
2023/07/06 04:00:36;;;;;;;7.07;3.63;;;16.30;99.90;;;;;;5093817;28;20077;-82
2023/07/06 04:03:09;;;;;;;5.40;3.65;;;16.30;99.90;;;;;;5093725;28;20032;-82
2023/07/06 04:05:43;;;;;;;9.38;3.65;;;16.30;99.90;;;;;;5093445;28;20093;-83
2023/07/06 04:08:11;;;;;;;6.13;3.38;;;16.40;99.90;;;;;;5093701;28;20034;-83
2023/07/06 04:10:39;;;;;;;7.28;3.83;;;16.40;99.90;;;;;;5093320;28;20202;-82
2023/07/06 04:13:05;;;;;;;5.30;3.00;;;16.40;99.90;;;;;;5093316;28;20043;-82
2023/07/06 04:15:31;;;;;;;6.68;3.13;;;16.40;99.90;;;;;;5094212;28;20028;-82
2023/07/06 04:17:57;;;;;;;7.53;3.10;;;16.40;99.90;;;;;;5093301;28;20032;-82
2023/07/06 04:20:26;;;;;;;7.90;3.50;;;16.40;99.90;;;;;;5097617;28;20024;-81
2023/07/06 04:22:57;;;;;;;7.43;3.70;;;16.30;99.90;;;;;;5096118;28;20024;-82
2023/07/06 04:25:31;;;;;;;8.38;3.60;;;16.30;99.90;;;;;;5097324;28;20476;-83
2023/07/06 04:28:05;;;;;;;7.78;3.70;;;16.30;99.90;;;;;;5097559;28;20463;-83
2023/07/06 04:30:33;;;;;;;12.93;3.15;;;16.20;99.90;;;;;;5097590;28;20479;-81
2023/07/06 04:32:59;;;;;;;7.00;3.13;;;16.20;99.90;;;;;;5097279;28;20020;-83
2023/07/06 04:35:26;;;;;;;8.88;3.80;;;16.20;99.90;;;;;;5095870;28;20110;-83
2023/07/06 04:37:53;;;;;;;8.70;3.47;;;16.10;99.90;;;;;;5097520;28;20115;-83
2023/07/06 04:40:20;;;;;;;8.07;3.38;;;16.10;99.90;;;;;;5097918;28;20043;-82
2023/07/06 04:42:50;;;;;;;12.32;4.07;;;16.10;99.90;;;;;;5080175;28;20489;-83
2023/07/06 04:45:17;;;;;;;7.95;3.38;;;16.10;99.90;;;;;;5095908;28;20108;-83
2023/07/06 04:47:44;;;;;;;5.88;3.38;;;16.10;99.90;;;;;;5097916;28;20055;-83
2023/07/06 04:50:12;;;;;;;5.93;2.50;;;16.10;99.90;;;;;;5097698;28;20353;-83
2023/07/06 04:52:38;;;;;;;7.72;3.40;;;16.20;99.90;;;;;;5098095;28;20089;-83
2023/07/06 04:55:11;;;;;;;8.40;3.63;;;16.30;99.90;;;;;;5078700;28;20039;-83
2023/07/06 04:57:37;;;;;;;11.65;3.72;;;16.30;99.90;;;;;;5097296;28;20115;-82
2023/07/06 05:00:17;;;;;;;9.20;4.00;;;16.20;99.90;;;;;;5095945;28;20115;-83
2023/07/06 05:02:45;;;;;;;7.63;3.45;;;16.30;99.90;;;;;;5097662;28;20028;-83
2023/07/06 05:05:12;;;;;;;12.23;4.07;;;16.20;99.90;;;;;;5097690;28;20032;-83
2023/07/06 05:07:39;;;;;;;12.32;3.80;;;16.20;99.90;;;;;;5098248;28;20464;-83
2023/07/06 05:10:05;;;;;;;7.82;3.47;;;16.20;99.90;;;;;;5100152;28;20481;-83
2023/07/06 05:12:31;;;;;;;9.30;3.38;;;16.10;99.90;;;;;;5099037;28;20032;-82
2023/07/06 05:14:57;;;;;;;11.10;3.40;;;16.10;99.90;;;;;;5100323;28;20345;-83
2023/07/06 05:17:24;;;;;;;9.70;3.30;;;16.10;99.90;;;;;;5097950;28;20024;-83
2023/07/06 05:19:50;;;;;;;11.43;3.80;;;16.10;99.90;;;;;;5098835;28;20375;-82
2023/07/06 05:22:18;;;;;;;9.45;3.25;;;16.10;99.90;;;;;;5097518;28;20056;-82
2023/07/06 05:24:44;;;;;;;8.48;3.65;;;16.10;99.90;;;;;;5097652;28;20035;-83
2023/07/06 05:27:10;;;;;;;5.55;2.90;;;16.20;99.90;;;;;;5097959;28;20032;-83
2023/07/06 05:29:36;;;;;;;7.30;2.70;;;16.20;99.90;;;;;;5098966;28;20384;-82
2023/07/06 05:32:01;;;;;;;12.65;4.20;;;16.20;99.90;;;;;;5098983;28;20048;-83
2023/07/06 05:34:27;;;;;;;8.45;3.30;;;16.20;99.90;;;;;;5097776;28;20039;-83
2023/07/06 05:36:53;;;;;;;11.35;3.50;;;16.20;99.90;;;;;;5097402;28;20432;-83
2023/07/06 05:39:18;;;;;;;10.15;3.63;;;16.20;99.90;;;;;;5097015;28;20035;-82
2023/07/06 05:41:44;;;;;;;10.45;4.43;;;16.20;99.90;;;;;;5098347;28;20372;-83
2023/07/06 05:44:10;;;;;;;17.63;4.90;;;16.30;99.90;;;;;;5097444;28;20024;-83
2023/07/06 05:46:35;;;;;;;10.32;3.90;;;16.20;99.90;;;;;;5101568;28;20036;-82
2023/07/06 05:49:01;;;;;;;9.45;4.65;;;16.20;99.90;;;;;;5100652;28;20044;-83
2023/07/06 05:51:27;;;;;;;11.18;4.28;;;16.30;99.90;;;;;;5103014;28;20119;-83
2023/07/06 05:53:52;;;;;;;14.95;5.38;;;16.30;99.90;;;;;;5103416;28;20028;-82
2023/07/06 05:56:19;;;;;;;16.05;5.03;;;16.30;99.90;;;;;;5100781;28;20028;-81
2023/07/06 05:58:45;;;;;;;10.95;4.40;;;16.30;99.90;;;;;;5102360;28;20086;-82
2023/07/06 06:01:11;;;;;;;11.15;5.15;;;16.30;99.90;;;;;;5084672;28;20028;-83
2023/07/06 06:03:37;;;;;;;15.55;6.55;;;16.30;99.90;;;;;;5101569;28;20110;-83
2023/07/06 06:06:03;;;;;;;14.75;6.32;;;16.30;99.90;;;;;;5102832;28;20047;-84
2023/07/06 06:08:29;;;;;;;15.27;6.63;;;16.30;99.90;;;;;;5102155;28;20024;-83
2023/07/06 06:10:55;;;;;;;14.52;6.75;;;16.30;99.90;;;;;;5100703;28;20068;-83
2023/07/06 06:13:21;;;;;;;14.82;5.80;;;16.30;99.90;;;;;;5102032;28;20024;-83
2023/07/06 06:15:47;;;;;;;15.38;6.75;;;16.40;99.90;;;;;;5099768;28;20032;-82
2023/07/06 06:18:13;;;;;;;18.10;7.38;;;16.40;99.90;;;;;;5100467;28;20058;-83
2023/07/06 06:20:41;;;;;;;17.38;7.70;;;16.50;99.90;;;;;;5082273;28;20028;-83
2023/07/06 06:23:10;;;;;;;17.42;7.47;;;16.40;99.90;;;;;;5099312;28;20024;-83
2023/07/06 06:25:38;;;;;;;17.55;6.82;;;16.50;99.90;;;;;;5100142;28;20032;-83
2023/07/06 06:28:09;;;;;;;15.57;7.30;;;16.50;99.90;;;;;;5100935;28;20048;-83
2023/07/06 06:30:38;;;;;;;15.88;7.43;;;16.50;99.90;;;;;;5101101;28;20032;-83
2023/07/06 06:33:04;;;;;;;22.95;9.07;;;16.50;99.90;;;;;;5100613;28;20053;-83
2023/07/06 06:35:33;;;;;;;15.93;7.20;;;16.50;99.90;;;;;;5100077;28;20521;-83
2023/07/06 06:37:59;;;;;;;20.13;7.93;;;16.60;99.90;;;;;;5102203;28;20059;-83
2023/07/06 06:40:27;;;;;;;21.63;9.13;;;16.60;99.90;;;;;;5099393;28;20055;-83
2023/07/06 06:42:54;;;;;;;21.42;9.05;;;16.70;99.90;;;;;;5099069;28;20032;-84
2023/07/06 06:45:21;;;;;;;17.50;8.05;;;16.70;99.90;;;;;;5096468;28;20056;-83
2023/07/06 06:47:47;;;;;;;22.75;9.43;;;16.80;99.90;;;;;;5098846;28;20134;-83
2023/07/06 06:50:17;;;;;;;22.00;10.75;;;16.80;99.90;;;;;;5097738;28;20048;-83
2023/07/06 06:52:43;;;;;;;21.60;10.13;;;16.80;99.90;;;;;;5096555;28;20039;-83
2023/07/06 06:55:10;;;;;;;19.70;10.07;;;16.70;99.90;;;;;;5096290;28;20032;-83
2023/07/06 06:57:36;;;;;;;25.65;9.75;;;16.70;99.90;;;;;;5095693;28;20456;-82
2023/07/06 07:00:06;;;;;;;32.47;13.05;;;16.70;99.90;;;;;;5097926;28;20461;-83
2023/07/06 07:02:32;;;;;;;26.15;11.90;;;16.70;99.90;;;;;;5078621;28;20072;-83
2023/07/06 07:05:00;;;;;;;19.50;10.57;;;16.70;99.90;;;;;;5097383;28;20081;-82
2023/07/06 07:07:27;;;;;;;26.80;11.60;;;16.70;99.90;;;;;;5083797;28;20028;-82
2023/07/06 07:09:53;;;;;;;23.77;11.98;;;16.80;99.90;;;;;;5099667;28;20043;-82
2023/07/06 07:12:18;;;;;;;21.20;12.10;;;16.80;99.90;;;;;;5100092;28;20081;-82
2023/07/06 07:14:45;;;;;;;19.65;12.00;;;16.90;99.90;;;;;;5080793;28;20444;-83
2023/07/06 07:17:12;;;;;;;21.00;12.25;;;16.90;99.90;;;;;;5097943;28;20031;-82
2023/07/06 07:19:39;;;;;;;21.75;11.60;;;16.90;99.90;;;;;;5099489;28;20111;-82
2023/07/06 07:22:06;;;;;;;27.52;12.13;;;17.00;99.90;;;;;;5098993;28;20024;-81
2023/07/06 07:24:32;;;;;;;21.27;12.40;;;17.00;99.90;;;;;;5099290;28;20062;-81
2023/07/06 07:27:01;;;;;;;21.17;12.23;;;17.00;99.90;;;;;;5098419;28;20032;-82
2023/07/06 07:29:26;;;;;;;21.13;11.90;;;17.10;99.90;;;;;;5098990;28;20111;-81
2023/07/06 07:31:52;;;;;;;22.65;11.02;;;17.10;99.90;;;;;;5098158;28;20082;-82
2023/07/06 07:34:19;;;;;;;25.05;12.55;;;17.10;99.90;;;;;;5098283;28;20403;-82
2023/07/06 07:36:45;;;;;;;23.42;11.38;;;17.20;99.90;;;;;;5098450;28;20116;-83
2023/07/06 07:39:11;;;;;;;22.95;10.82;;;17.20;99.90;;;;;;5097845;28;20051;-83
2023/07/06 07:41:37;;;;;;;23.00;12.90;;;17.30;99.90;;;;;;5097434;28;20024;-82
2023/07/06 07:44:03;;;;;;;20.70;13.50;;;17.30;99.90;;;;;;5096270;28;20081;-84
2023/07/06 07:46:29;;;;;;;19.23;12.00;;;17.20;99.90;;;;;;5092209;28;20044;-83
2023/07/06 07:48:56;;;;;;;20.55;13.20;;;17.30;99.90;;;;;;5092649;28;20048;-82
2023/07/06 07:51:26;;;;;;;25.38;13.70;;;17.30;99.90;;;;;;5092918;28;20027;-81
2023/07/06 07:53:54;;;;;;;22.92;13.43;;;17.30;99.90;;;;;;5096583;28;20498;-81
2023/07/06 07:56:21;;;;;;;20.33;12.32;;;17.40;99.90;;;;;;5098000;28;20169;-80
2023/07/06 07:58:48;;;;;;;21.27;12.15;;;17.50;99.90;;;;;;5102898;28;20024;-79
2023/07/06 08:01:22;;;;;;;22.80;13.27;;;17.50;99.90;;;;;;5103831;28;20100;-80
2023/07/06 08:03:49;;;;;;;17.85;11.48;;;17.60;99.90;;;;;;5104025;28;20035;-80
2023/07/06 08:06:16;;;;;;;23.55;13.05;;;17.60;99.90;;;;;;5086509;28;20036;-79
2023/07/06 08:08:43;;;;;;;20.42;13.32;;;17.60;99.90;;;;;;5105696;28;20054;-81
2023/07/06 08:11:11;;;;;;;19.08;12.77;;;17.70;99.90;;;;;;5104885;28;20075;-80
2023/07/06 08:13:37;;;;;;;25.63;12.60;;;17.70;99.90;;;;;;5103215;28;20060;-80
2023/07/06 08:16:04;;;;;;;20.88;12.10;;;17.70;99.90;;;;;;5104559;28;20115;-80
2023/07/06 08:18:31;;;;;;;22.00;12.55;;;17.80;99.90;;;;;;5103528;28;20066;-78
2023/07/06 08:20:57;;;;;;;18.73;12.40;;;17.90;99.90;;;;;;5102527;28;20032;-81
2023/07/06 08:23:25;;;;;;;20.83;11.60;;;18.00;99.90;;;;;;5102241;28;20058;-81
2023/07/06 08:25:51;;;;;;;20.33;11.27;;;18.10;99.90;;;;;;5105684;28;20064;-80
2023/07/06 08:28:31;;;;;;;19.83;10.98;;;18.30;99.90;;;;;;5103615;28;20024;-80
2023/07/06 08:31:03;;;;;;;18.73;10.70;;;18.30;99.90;;;;;;5101640;28;20028;-80
2023/07/06 08:33:35;;;;;;;19.50;11.45;;;18.30;99.90;;;;;;5104358;28;20036;-80
2023/07/06 08:36:05;;;;;;;18.77;10.57;;;18.30;99.90;;;;;;5101571;28;20437;-81
2023/07/06 08:38:31;;;;;;;17.20;11.52;;;18.30;99.90;;;;;;5099294;28;20027;-80
2023/07/06 08:40:59;;;;;;;17.88;11.43;;;18.50;99.90;;;;;;5100394;28;20024;-80
2023/07/06 08:43:26;;;;;;;16.73;11.65;;;18.60;99.90;;;;;;5102972;28;20445;-81
2023/07/06 08:46:00;;;;;;;16.95;10.65;;;18.70;99.90;;;;;;5103037;28;20028;-81
2023/07/06 08:48:28;;;;;;;17.85;10.32;;;18.60;99.90;;;;;;5102620;28;20044;-81
2023/07/06 08:51:17;;;;;;;16.13;9.23;;;18.60;99.40;;;;;;5100925;28;20032;-80
2023/07/06 08:54:19;;;;;;;15.25;10.75;;;18.60;99.40;;;;;;5099574;28;20032;-80
2023/07/06 08:56:47;;;;;;;15.73;10.30;;;18.60;99.30;;;;;;5098510;28;20091;-81
2023/07/06 08:59:37;;;;;;;18.73;11.35;;;18.50;99.30;;;;;;5098770;28;20040;-80
2023/07/06 09:02:15;;;;;;;15.98;10.45;;;18.50;99.20;;;;;;5098061;28;20368;-80
2023/07/06 09:04:41;;;;;;;22.52;9.43;;;18.60;99.50;;;;;;5096330;28;20371;-81
2023/07/06 09:07:12;;;;;;;16.23;9.60;;;18.80;99.60;;;;;;5096623;28;20111;-81
2023/07/06 09:09:40;;;;;;;10.35;8.75;;;19.00;99.50;;;;;;5097869;28;20032;-82
2023/07/06 09:12:14;;;;;;;17.88;10.02;;;19.10;99.50;;;;;;5101041;28;20036;-81
2023/07/06 09:14:49;;;;;;;20.40;11.27;;;19.20;99.10;;;;;;5101989;28;20024;-81
2023/07/06 09:17:16;;;;;;;10.48;7.85;;;19.20;98.10;;;;;;5098018;28;20074;-81
2023/07/06 09:19:44;;;;;;;15.98;8.48;;;19.20;98.30;;;;;;5098629;28;20032;-81
2023/07/06 09:22:10;;;;;;;15.10;8.65;;;19.20;98.10;;;;;;5098870;28;20103;-81
2023/07/06 09:24:37;;;;;;;12.55;8.30;;;19.20;98.10;;;;;;5098100;28;20025;-81
2023/07/06 09:27:14;;;;;;;13.35;7.57;;;19.30;98.10;;;;;;5101308;28;20024;-81
2023/07/06 09:29:41;;;;;;;12.77;7.40;;;19.40;97.40;;;;;;5100748;28;20059;-81
2023/07/06 09:32:27;;;;;;;13.25;7.82;;;19.40;97.00;;;;;;5099685;28;20089;-81
2023/07/06 09:35:03;;;;;;;12.82;7.93;;;19.40;97.20;;;;;;5101502;28;20115;-80
2023/07/06 09:37:29;;;;;;;11.80;7.80;;;19.40;97.10;;;;;;5099813;28;20076;-81
2023/07/06 09:40:03;;;;;;;16.38;7.95;;;19.40;97.10;;;;;;5097846;28;20044;-82
2023/07/06 09:42:29;;;;;;;16.92;7.85;;;19.50;96.90;;;;;;5098678;28;20031;-80
2023/07/06 09:44:55;;;;;;;15.75;6.72;;;19.50;96.90;;;;;;5102813;28;20020;-80
2023/07/06 09:47:23;;;;;;;16.60;7.82;;;19.60;97.10;;;;;;5099045;28;20129;-80
2023/07/06 09:50:18;;;;;;;12.65;7.20;;;19.80;97.10;;;;;;5096396;28;20036;-81
2023/07/06 09:52:44;;;;;;;11.57;6.88;;;19.90;96.80;;;;;;5099102;28;20032;-81
2023/07/06 09:55:29;;;;;;;14.88;6.97;;;19.90;96.50;;;;;;5095888;28;20085;-81
2023/07/06 09:57:56;;;;;;;13.18;6.97;;;20.00;96.30;;;;;;5095427;28;20055;-80
2023/07/06 10:00:27;;;;;;;13.18;5.72;;;20.10;96.20;;;;;;5096299;28;20035;-80
2023/07/06 10:03:08;;;;;;;15.07;7.80;;;20.20;96.30;;;;;;5097651;28;20103;-79
2023/07/06 10:05:43;;;;;;;15.00;6.60;;;20.30;96.40;;;;;;5096085;28;20536;-80
2023/07/06 10:08:11;;;;;;;11.02;5.75;;;20.40;96.40;;;;;;5096074;28;20016;-81
2023/07/06 10:10:37;;;;;;;11.73;5.68;;;20.60;95.80;;;;;;5095994;28;20024;-80
2023/07/06 10:13:21;;;;;;;7.82;4.57;;;20.70;95.00;;;;;;5096897;28;20038;-81
2023/07/06 10:16:15;;;;;;;10.93;4.60;;;20.70;94.60;;;;;;5095375;28;20099;-81
2023/07/06 10:18:54;;;;;;;8.20;3.97;;;20.80;94.10;;;;;;5095586;28;20115;-81
2023/07/06 10:21:27;;;;;;;13.63;5.80;;;20.90;93.90;;;;;;5097191;28;20471;-79
2023/07/06 10:24:01;;;;;;;;;;;21.00;93.70;;;;;;5096675;28;20424;-81
2023/07/06 10:26:34;;;;;;;10.85;5.30;;;21.00;93.70;;;;;;5094640;28;19970;-81
2023/07/06 10:29:05;;;;;;;9.02;4.75;;;21.20;93.90;;;;;;5095170;28;20487;-81
2023/07/06 10:31:44;;;;;;;12.82;5.00;;;21.40;93.60;;;;;;5095297;28;20032;-81
2023/07/06 10:34:17;;;;;;;7.47;3.75;;;21.50;93.30;;;;;;5093918;28;20105;-81
2023/07/06 10:36:44;;;;;;;13.60;5.20;;;21.70;93.30;;;;;;5097145;28;20094;-81
2023/07/06 10:39:42;;;;;;;10.27;4.70;;;21.80;92.60;;;;;;5077148;28;20053;-81
2023/07/06 10:42:21;;;;;;;9.82;4.93;;;21.80;92.50;;;;;;5062275;28;20038;-81
2023/07/06 10:44:51;;;;;;;11.77;5.13;;;21.60;92.40;;;;;;5095357;28;20472;-81
2023/07/06 10:47:29;;;;;;;9.23;3.90;;;21.60;92.40;;;;;;5096045;28;20031;-80
2023/07/06 10:50:30;;;;;;;8.55;3.88;;;21.80;91.90;;;;;;5095334;28;20036;-80
2023/07/06 10:53:04;;;;;;;8.15;3.88;;;21.90;91.40;;;;;;5095651;28;20487;-80
2023/07/06 10:55:35;;;;;;;7.45;3.45;;;21.90;90.90;;;;;;5094299;28;20440;-81
2023/07/06 10:58:18;;;;;;;8.90;3.90;;;22.00;91.10;;;;;;5095788;28;20107;-81
2023/07/06 11:00:44;;;;;;;7.25;3.40;;;22.10;91.10;;;;;;5094457;28;20024;-81
2023/07/06 11:03:15;;;;;;;11.30;3.72;;;22.00;90.90;;;;;;5092937;28;20043;-81
2023/07/06 11:05:56;;;;;;;4.93;2.70;;;22.10;90.90;;;;;;5094578;28;20031;-81
2023/07/06 11:09:04;;;;;;;8.23;2.97;;;22.20;90.90;;;;;;5093856;28;20506;-80
2023/07/06 11:11:34;;;;;;;10.30;4.40;;;22.50;91.10;;;;;;5093657;28;20069;-80
2023/07/06 11:14:23;;;;;;;7.32;3.42;;;22.60;89.80;;;;;;5094065;28;20024;-80
2023/07/06 11:17:33;;;;;;;8.20;3.42;;;22.60;89.20;;;;;;5093572;28;20046;-81
2023/07/06 11:20:15;;;;;;;8.02;3.42;;;22.60;89.90;;;;;;5092808;28;20040;-81
2023/07/06 11:22:44;;;;;;;8.00;3.05;;;22.60;87.80;;;;;;5093797;28;20039;-80
2023/07/06 11:25:13;;;;;;;5.47;2.92;;;22.50;86.60;;;;;;5092139;28;20106;-81
2023/07/06 11:27:44;;;;;;;7.85;3.10;;;22.60;86.80;;;;;;5093285;28;20073;-81
2023/07/06 11:30:22;;;;;;;5.80;3.07;;;22.70;87.40;;;;;;5093849;28;20039;-81
2023/07/06 11:32:48;;;;;;;9.05;3.28;;;22.80;84.70;;;;;;5095127;28;20801;-80
2023/07/06 11:35:41;;;;;;;6.30;2.55;;;22.80;83.90;;;;;;5094263;28;20116;-81
2023/07/06 11:38:44;;;;;;;6.55;3.20;;;22.60;84.80;;;;;;5093365;28;20111;-81
2023/07/06 11:41:27;;;;;;;7.45;3.60;;;22.50;84.90;;;;;;5093801;28;20024;-82
2023/07/06 11:44:11;;;;;;;;;;;22.40;85.50;;;;;;5094187;28;20024;-81
2023/07/06 11:46:45;;;;;;;7.20;3.20;;;22.40;85.30;;;;;;5093515;28;20364;-82
2023/07/06 11:49:21;;;;;;;7.85;2.90;;;22.50;85.60;;;;;;5093906;28;20048;-82
2023/07/06 11:51:49;;;;;;;6.13;3.10;;;22.40;85.50;;;;;;5093720;28;20020;-82
2023/07/06 11:59:52;;;;;;;7.80;3.30;;;22.50;88.10;;;;;;5093813;28;20059;-81
2023/07/06 12:02:18;;;;;;;;;;;22.70;86.40;;;;;;5094628;28;20025;-81
2023/07/06 12:04:49;;;;;;;6.20;2.38;;;22.80;86.10;;;;;;5092161;28;19947;-81
2023/07/06 12:07:24;;;;;;;6.57;2.45;;;22.80;85.10;;;;;;5092603;28;20052;-82
2023/07/06 12:09:50;;;;;;;6.03;2.10;;;22.80;84.90;;;;;;5092383;28;20321;-82
2023/07/06 12:12:17;;;;;;;7.40;2.10;;;22.60;84.70;;;;;;5093241;28;20024;-82
2023/07/06 12:14:44;;;;;;;4.90;2.55;;;22.50;83.70;;;;;;5094724;28;20016;-80
2023/07/06 12:17:11;;;;;;;8.93;2.42;;;22.40;83.60;;;;;;5096190;28;20030;-80
2023/07/06 12:19:41;;;;;;;4.57;2.20;;;22.20;84.40;;;;;;5096669;28;20029;-80
2023/07/06 12:22:14;;;;;;;6.28;2.20;;;22.00;85.00;;;;;;5100809;28;20027;-80
2023/07/06 12:24:39;;;;;;;8.68;3.05;;;21.90;84.20;;;;;;5099378;28;20024;-80
2023/07/06 12:27:12;;;;;;;5.85;2.35;;;21.80;84.40;;;;;;5080009;28;20040;-80
2023/07/06 12:29:37;;;;;;;;;;;21.70;85.40;;;;;;5099418;28;20027;-80
2023/07/06 12:32:07;;;;;;;6.97;2.95;;;21.60;85.80;;;;;;5098772;28;19904;-80
2023/07/06 12:34:34;;;;;;;6.55;2.53;;;21.50;86.60;;;;;;5099367;28;20028;-80
2023/07/06 12:37:02;;;;;;;6.43;2.38;;;21.40;87.20;;;;;;5099446;28;20024;-79
2023/07/06 12:39:31;;;;;;;6.82;2.92;;;21.40;87.90;;;;;;5099589;28;20024;-80
2023/07/06 12:41:57;;;;;;;7.70;3.65;;;21.30;87.40;;;;;;5099973;28;20451;-81
2023/07/06 12:44:26;;;;;;;8.50;2.85;;;21.30;87.50;;;;;;5100695;28;20108;-79
2023/07/06 12:47:01;;;;;;;8.77;3.03;;;21.20;87.90;;;;;;5101323;28;20032;-80
2023/07/06 12:49:27;;;;;;;7.97;3.67;;;21.30;88.40;;;;;;5098021;28;20113;-80
2023/07/06 12:51:56;;;;;;;7.15;2.58;;;21.20;88.50;;;;;;5098462;28;20024;-80
2023/07/06 12:54:27;;;;;;;8.75;3.72;;;21.20;89.10;;;;;;5099950;28;20020;-80
2023/07/06 12:57:22;;;;;;;6.32;2.40;;;21.10;89.80;;;;;;5098959;28;20032;-80
2023/07/06 13:00:10;;;;;;;6.50;2.15;;;21.00;90.00;;;;;;5099958;28;20024;-81
2023/07/06 13:02:38;;;;;;;8.93;2.50;;;20.90;90.30;;;;;;5084692;28;20036;-80